Terminal Aerodrome Forecast
Issued by NWS

Home | Current Version | Previous Version | Text Only | Print | Product List | Glossary On
Versions: 1 2 3 4 5 6 7 8 9 10 11 12
973
FTUS45 KVEF 071120
TAFEED
TAF
KEED 071120Z 0712/0812 35008KT P6SM BKN250
     FM071500 35010G18KT P6SM BKN250
     FM071800 01018G28KT P6SM BKN250
     FM080200 34008KT P6SM BKN250=

USA.gov is the U.S. government's official web portal to all federal, state and local government web resources and services.